Time;durP1;ratioP1;P1;durP2;ratioP2;P2;SDS_P1;SDS_P2;PMS_P1;PMS_P2;Temp;Humidity;BMP_temperature;BMP_pressure;BME280_temperature;BME280_humidity;BME280_pressure;Samples;Min_cycle;Max_cycle;Signal;HPM_P1;HPM_P2
2021/03/08 00:02:24;;;;;;;14.37;8.53;;;6.20;67.50;;;;;;5073449;28;20825;-73
2021/03/08 00:04:51;;;;;;;10.20;9.20;;;6.10;67.80;;;;;;5073262;28;20472;-72
2021/03/08 00:07:18;;;;;;;9.00;8.10;;;6.10;67.70;;;;;;5074004;28;20468;-73
2021/03/08 00:09:44;;;;;;;10.57;8.80;;;6.10;67.70;;;;;;5073483;28;20480;-73
2021/03/08 00:12:11;;;;;;;9.77;8.77;;;6.10;67.90;;;;;;5073465;28;20445;-73
2021/03/08 00:14:37;;;;;;;13.07;8.40;;;6.10;68.10;;;;;;5073477;28;20864;-73
2021/03/08 00:17:04;;;;;;;9.50;8.50;;;6.10;68.50;;;;;;5073387;28;20471;-73
2021/03/08 00:19:30;;;;;;;9.97;9.00;;;6.10;69.10;;;;;;5073081;28;20447;-73
2021/03/08 00:21:57;;;;;;;11.00;8.97;;;6.10;69.50;;;;;;5077768;28;20445;-73
2021/03/08 00:24:23;;;;;;;11.50;9.63;;;6.10;69.50;;;;;;5080037;28;20428;-73
2021/03/08 00:26:49;;;;;;;10.80;9.70;;;6.10;69.50;;;;;;5079847;28;20485;-73
2021/03/08 00:29:15;;;;;;;10.87;9.47;;;6.20;69.10;;;;;;5079949;28;20456;-73
2021/03/08 00:31:42;;;;;;;11.13;9.43;;;6.20;68.70;;;;;;5079663;28;20478;-73
2021/03/08 00:34:08;;;;;;;12.83;10.40;;;6.10;68.40;;;;;;5079866;28;20543;-73
2021/03/08 00:36:34;;;;;;;14.93;11.57;;;6.10;68.40;;;;;;5079819;28;20464;-73
2021/03/08 00:39:02;;;;;;;13.67;11.20;;;6.10;68.60;;;;;;5079863;28;20467;-73
2021/03/08 00:41:28;;;;;;;15.10;9.70;;;6.10;68.30;;;;;;5079727;28;20460;-73
2021/03/08 00:43:55;;;;;;;13.20;11.10;;;6.10;68.40;;;;;;5079821;28;20452;-73
2021/03/08 00:46:21;;;;;;;12.67;9.90;;;6.10;68.20;;;;;;5079762;28;20477;-73
2021/03/08 00:48:47;;;;;;;16.20;10.70;;;6.10;68.90;;;;;;5079807;28;20447;-73
2021/03/08 00:51:13;;;;;;;13.00;10.33;;;6.10;69.30;;;;;;5079724;28;20459;-73
2021/03/08 00:53:39;;;;;;;13.00;11.57;;;6.10;69.70;;;;;;5079470;28;20802;-73
2021/03/08 00:56:06;;;;;;;14.03;10.77;;;6.10;69.60;;;;;;5079649;28;20444;-73
2021/03/08 00:58:33;;;;;;;12.50;10.00;;;6.10;69.40;;;;;;5079370;28;20444;-73
2021/03/08 01:00:59;;;;;;;11.77;10.20;;;6.00;69.10;;;;;;5079666;28;20444;-73
2021/03/08 01:03:25;;;;;;;14.17;11.13;;;6.00;68.40;;;;;;5079657;28;20826;-73
2021/03/08 01:05:51;;;;;;;15.77;10.53;;;6.00;69.30;;;;;;5079435;28;20559;-73
2021/03/08 01:08:17;;;;;;;13.60;10.37;;;6.00;69.70;;;;;;5079535;28;20461;-73
2021/03/08 01:10:44;;;;;;;14.40;11.40;;;6.00;70.00;;;;;;5079552;28;20445;-73
2021/03/08 01:13:11;;;;;;;14.43;10.70;;;6.00;68.80;;;;;;5079253;28;20949;-73
2021/03/08 01:15:37;;;;;;;12.13;10.00;;;6.00;68.70;;;;;;5079510;28;20470;-73
2021/03/08 01:18:04;;;;;;;12.90;10.23;;;6.00;68.90;;;;;;5079418;28;20471;-73
2021/03/08 01:20:30;;;;;;;12.13;9.97;;;6.00;69.20;;;;;;5079494;28;20817;-73
2021/03/08 01:22:57;;;;;;;12.30;11.07;;;6.00;69.70;;;;;;5079476;28;20448;-73
2021/03/08 01:25:26;;;;;;;12.93;10.43;;;6.00;69.40;;;;;;5079344;28;20476;-73
2021/03/08 01:27:52;;;;;;;14.27;11.07;;;6.10;69.70;;;;;;5079384;28;20468;-73
2021/03/08 01:30:22;;;;;;;11.47;9.87;;;6.00;69.70;;;;;;5079093;28;21007;-73
2021/03/08 01:32:48;;;;;;;12.10;10.43;;;6.00;69.80;;;;;;5077032;28;20445;-73
2021/03/08 01:35:14;;;;;;;11.43;10.20;;;6.10;69.80;;;;;;5075899;28;20934;-73
2021/03/08 01:37:41;;;;;;;17.53;11.40;;;6.10;70.00;;;;;;5075783;28;20468;-73
2021/03/08 01:40:09;;;;;;;12.50;10.27;;;6.10;70.10;;;;;;5076137;28;20856;-73
2021/03/08 01:42:36;;;;;;;15.07;11.40;;;6.00;70.00;;;;;;5076080;28;20448;-73
2021/03/08 01:45:05;;;;;;;14.37;11.10;;;6.10;70.20;;;;;;5075975;28;20472;-73
2021/03/08 01:47:32;;;;;;;13.40;11.30;;;6.00;70.20;;;;;;5075886;28;20831;-73
2021/03/08 01:49:58;;;;;;;14.80;10.80;;;5.90;68.90;;;;;;5075969;28;20477;-73
2021/03/08 01:52:25;;;;;;;14.33;12.43;;;5.70;68.30;;;;;;5075873;28;20441;-73
2021/03/08 01:54:51;;;;;;;14.93;11.77;;;5.70;68.90;;;;;;5075903;28;20440;-73
2021/03/08 01:57:17;;;;;;;17.07;12.53;;;5.70;69.20;;;;;;5075780;28;20472;-73
2021/03/08 01:59:44;;;;;;;13.60;11.23;;;5.80;69.70;;;;;;5075770;28;20444;-73
2021/03/08 02:02:10;;;;;;;21.40;12.83;;;5.70;69.70;;;;;;5076001;28;20441;-73
2021/03/08 02:04:37;;;;;;;14.80;11.50;;;5.70;69.70;;;;;;5075620;28;20440;-73
2021/03/08 02:07:03;;;;;;;14.63;12.27;;;5.70;69.60;;;;;;5075134;28;20491;-73
2021/03/08 02:09:30;;;;;;;13.10;11.23;;;5.80;70.20;;;;;;5075607;28;20445;-73
2021/03/08 02:12:03;;;;;;;14.67;11.63;;;5.80;70.70;;;;;;5075574;28;20440;-73
2021/03/08 02:14:46;;;;;;;12.33;11.03;;;5.90;71.30;;;;;;5075531;28;20432;-73
2021/03/08 02:17:17;;;;;;;12.70;10.80;;;5.90;71.80;;;;;;5075131;28;20464;-73
2021/03/08 02:20:19;;;;;;;12.63;11.33;;;5.90;71.90;;;;;;5075441;28;20489;-73
2021/03/08 02:23:10;;;;;;;13.67;11.57;;;5.90;72.10;;;;;;5068567;28;20479;-73
2021/03/08 02:25:58;;;;;;;15.17;11.80;;;6.00;72.20;;;;;;5075237;28;20468;-73
2021/03/08 02:28:54;;;;;;;16.73;12.17;;;6.00;72.20;;;;;;5075160;28;20522;-73
2021/03/08 02:31:24;;;;;;;14.20;11.23;;;6.00;71.90;;;;;;5075244;28;20425;-73
2021/03/08 02:33:58;;;;;;;17.10;12.20;;;6.00;71.80;;;;;;5075613;28;20440;-73
2021/03/08 02:36:29;;;;;;;14.13;11.70;;;6.00;71.80;;;;;;5075072;28;20833;-73
2021/03/08 02:39:01;;;;;;;17.13;12.93;;;6.00;71.50;;;;;;5075087;28;20447;-73
2021/03/08 02:41:30;;;;;;;16.47;12.70;;;6.00;71.70;;;;;;5075004;28;20429;-73
2021/03/08 02:44:00;;;;;;;14.67;12.43;;;6.00;71.80;;;;;;5074702;28;20504;-73
2021/03/08 02:46:30;;;;;;;15.80;12.33;;;5.90;72.00;;;;;;5074715;28;20475;-73
2021/03/08 02:49:01;;;;;;;15.17;11.30;;;5.90;72.40;;;;;;5074846;28;20431;-73
2021/03/08 02:51:29;;;;;;;17.43;13.13;;;5.90;72.70;;;;;;5074813;28;20429;-73
2021/03/08 02:53:58;;;;;;;15.60;12.27;;;5.90;72.80;;;;;;5074699;28;20455;-73
2021/03/08 02:56:29;;;;;;;14.63;12.70;;;5.80;72.80;;;;;;5074599;28;20440;-73
2021/03/08 02:58:56;;;;;;;17.57;14.23;;;5.70;72.60;;;;;;5074664;28;20436;-73
2021/03/08 03:01:25;;;;;;;21.43;13.93;;;5.70;73.00;;;;;;5074461;28;20816;-73
2021/03/08 03:03:54;;;;;;;23.00;14.63;;;5.70;73.20;;;;;;5074481;28;20448;-73
2021/03/08 03:06:23;;;;;;;25.97;17.70;;;5.60;73.10;;;;;;5074004;28;20821;-73
2021/03/08 03:08:52;;;;;;;21.07;15.77;;;5.60;73.30;;;;;;5074419;28;20813;-73
2021/03/08 03:11:19;;;;;;;22.83;16.00;;;5.60;73.40;;;;;;5074374;28;20451;-73
2021/03/08 03:13:47;;;;;;;22.97;15.20;;;5.60;73.50;;;;;;5074316;28;20448;-73
2021/03/08 03:16:14;;;;;;;26.27;16.73;;;5.60;73.50;;;;;;5073844;28;20954;-73
2021/03/08 03:18:44;;;;;;;21.90;15.93;;;5.60;73.80;;;;;;5074191;28;20455;-73
2021/03/08 03:21:13;;;;;;;21.07;16.63;;;5.50;73.80;;;;;;5073904;28;20444;-73
2021/03/08 03:23:39;;;;;;;23.27;16.80;;;5.50;73.90;;;;;;5074157;28;20448;-73
2021/03/08 03:26:07;;;;;;;23.93;17.53;;;5.50;74.10;;;;;;5074068;28;20473;-73
2021/03/08 03:28:34;;;;;;;31.93;17.80;;;5.60;74.80;;;;;;5073958;28;20518;-73
2021/03/08 03:31:01;;;;;;;25.60;16.70;;;5.60;75.00;;;;;;5073999;28;20451;-73
2021/03/08 03:33:27;;;;;;;22.27;16.13;;;5.60;75.00;;;;;;5073988;28;20452;-73
2021/03/08 03:35:54;;;;;;;23.90;17.30;;;5.60;75.00;;;;;;5073640;28;20942;-73
2021/03/08 03:38:22;;;;;;;24.63;16.60;;;5.70;74.90;;;;;;5073510;28;20475;-73
2021/03/08 03:40:50;;;;;;;27.10;17.70;;;5.70;75.00;;;;;;5073885;28;20444;-73
2021/03/08 03:43:17;;;;;;;26.23;18.73;;;5.60;75.00;;;;;;5073821;28;20569;-73
2021/03/08 03:45:43;;;;;;;24.77;17.60;;;5.60;75.20;;;;;;5073752;28;20491;-73
2021/03/08 03:48:10;;;;;;;27.90;17.90;;;5.60;75.20;;;;;;5073630;28;20472;-73
2021/03/08 03:50:37;;;;;;;27.80;18.60;;;5.60;75.20;;;;;;5073736;28;20440;-73
2021/03/08 03:53:04;;;;;;;26.67;18.87;;;5.60;75.10;;;;;;5073693;28;20448;-73
2021/03/08 03:55:32;;;;;;;30.73;20.00;;;5.50;74.40;;;;;;5073180;28;20437;-73
2021/03/08 03:58:06;;;;;;;30.70;20.00;;;5.40;74.70;;;;;;5073550;28;20460;-73
2021/03/08 04:00:37;;;;;;;26.23;17.60;;;5.30;74.80;;;;;;5073649;28;20436;-73
2021/03/08 04:03:08;;;;;;;29.10;19.10;;;5.30;75.60;;;;;;5073595;28;20436;-73
2021/03/08 04:05:36;;;;;;;27.20;18.73;;;5.30;74.70;;;;;;5073272;28;20484;-73
2021/03/08 04:08:03;;;;;;;25.77;18.67;;;5.30;74.80;;;;;;5073141;28;20941;-73
2021/03/08 04:10:31;;;;;;;29.87;18.70;;;5.30;75.10;;;;;;5073538;28;20440;-73
2021/03/08 04:13:00;;;;;;;27.37;18.73;;;5.30;74.90;;;;;;5073471;28;20429;-73
2021/03/08 04:15:29;;;;;;;31.30;19.47;;;5.30;74.90;;;;;;5073378;28;20468;-73
2021/03/08 04:17:57;;;;;;;32.03;18.70;;;5.30;75.30;;;;;;5073042;28;20461;-73
2021/03/08 04:20:26;;;;;;;29.10;19.77;;;5.30;75.30;;;;;;5073390;28;20449;-73
2021/03/08 04:22:53;;;;;;;26.53;19.33;;;5.30;75.30;;;;;;5073397;28;20452;-73
2021/03/08 04:25:20;;;;;;;27.67;18.87;;;5.30;75.20;;;;;;5072974;28;20480;-73
2021/03/08 04:27:48;;;;;;;27.13;18.90;;;5.30;75.30;;;;;;5073240;28;20468;-73
2021/03/08 04:30:15;;;;;;;28.27;19.20;;;5.30;75.40;;;;;;5073055;28;20455;-73
2021/03/08 04:32:44;;;;;;;23.80;17.30;;;5.30;75.10;;;;;;5073186;28;20441;-73
2021/03/08 04:35:11;;;;;;;27.80;18.57;;;5.20;75.00;;;;;;5072929;28;20947;-73
2021/03/08 04:37:39;;;;;;;28.43;19.53;;;5.20;74.80;;;;;;5073114;28;20475;-73
2021/03/08 04:40:07;;;;;;;26.80;20.47;;;5.20;75.00;;;;;;5073170;28;20455;-73
2021/03/08 04:42:34;;;;;;;28.50;18.03;;;5.20;75.10;;;;;;5073193;28;20445;-73
2021/03/08 04:45:02;;;;;;;30.10;20.30;;;5.10;75.00;;;;;;5073050;28;20448;-73
2021/03/08 04:47:29;;;;;;;30.30;19.93;;;5.10;75.20;;;;;;5073061;28;20518;-73
2021/03/08 04:49:56;;;;;;;26.30;18.80;;;5.00;75.70;;;;;;5073637;28;20472;-73
2021/03/08 04:52:23;;;;;;;28.00;19.30;;;5.00;76.00;;;;;;5073038;28;20498;-73
2021/03/08 04:54:50;;;;;;;30.27;22.60;;;5.00;76.70;;;;;;5073059;28;20450;-73
2021/03/08 04:57:20;;;;;;;30.30;20.40;;;4.90;76.00;;;;;;5072897;28;20815;-73
2021/03/08 04:59:48;;;;;;;28.60;19.83;;;4.90;76.20;;;;;;5073280;28;20474;-73
2021/03/08 05:02:16;;;;;;;28.17;18.90;;;4.80;76.20;;;;;;5072954;28;20786;-73
2021/03/08 05:04:46;;;;;;;30.77;19.57;;;4.80;76.30;;;;;;5072800;28;20447;-73
2021/03/08 05:07:15;;;;;;;30.87;21.17;;;4.80;76.50;;;;;;5072480;28;20989;-73
2021/03/08 05:09:42;;;;;;;33.73;21.00;;;4.80;76.80;;;;;;5076265;28;20447;-73
2021/03/08 05:12:12;;;;;;;30.47;19.90;;;4.80;76.80;;;;;;5076613;28;20444;-73
2021/03/08 05:14:40;;;;;;;28.77;20.17;;;4.80;76.80;;;;;;5076588;28;20448;-73
2021/03/08 05:17:08;;;;;;;30.90;20.07;;;4.80;76.80;;;;;;5076506;28;20487;-73
2021/03/08 05:19:39;;;;;;;30.33;21.03;;;4.80;76.60;;;;;;5076478;28;20443;-73
2021/03/08 05:22:06;;;;;;;29.40;20.63;;;4.80;76.40;;;;;;5076535;28;20436;-73
2021/03/08 05:24:32;;;;;;;32.53;21.97;;;4.80;76.40;;;;;;5076415;28;20448;-73
2021/03/08 05:27:08;;;;;;;33.13;21.53;;;4.80;76.70;;;;;;5076234;28;20531;-73
2021/03/08 05:29:36;;;;;;;31.47;22.03;;;4.80;76.90;;;;;;5076318;28;20522;-73
2021/03/08 05:32:06;;;;;;;33.60;22.00;;;4.80;76.90;;;;;;5076291;28;20451;-73
2021/03/08 05:34:34;;;;;;;34.33;22.30;;;4.80;77.10;;;;;;5076244;28;20444;-73
2021/03/08 05:37:02;;;;;;;34.33;21.90;;;4.80;76.80;;;;;;5076099;28;20455;-73
2021/03/08 05:39:29;;;;;;;34.30;22.80;;;4.80;76.70;;;;;;5076121;28;20448;-73
2021/03/08 05:42:06;;;;;;;37.23;21.60;;;4.70;76.40;;;;;;5076093;28;20448;-73
2021/03/08 05:44:33;;;;;;;38.07;21.23;;;4.70;76.60;;;;;;5076088;28;20482;-73
2021/03/08 05:47:25;;;;;;;33.53;22.83;;;4.60;76.80;;;;;;5075741;28;20889;-73
2021/03/08 05:50:08;;;;;;;35.30;23.37;;;4.50;77.20;;;;;;5075938;28;20433;-73
2021/03/08 05:53:03;;;;;;;34.53;22.60;;;4.50;77.70;;;;;;5075923;28;20451;-73
2021/03/08 05:55:49;;;;;;;34.10;22.30;;;4.50;78.00;;;;;;5075508;28;20918;-73
2021/03/08 05:58:47;;;;;;;36.17;21.97;;;4.50;77.90;;;;;;5075778;28;20504;-72
2021/03/08 06:01:34;;;;;;;38.70;23.57;;;4.50;78.00;;;;;;5075673;28;20486;-72
2021/03/08 06:04:22;;;;;;;38.40;24.40;;;4.50;78.10;;;;;;5075526;28;20432;-73
2021/03/08 06:07:19;;;;;;;37.50;23.60;;;4.50;78.10;;;;;;5075179;28;20502;-73
2021/03/08 06:09:56;;;;;;;38.87;23.87;;;4.50;78.00;;;;;;5050113;28;20433;-72
2021/03/08 06:12:26;;;;;;;43.93;25.63;;;4.50;78.10;;;;;;5075619;28;20486;-73
2021/03/08 06:14:58;;;;;;;36.13;23.17;;;4.50;78.20;;;;;;5075167;28;20827;-73
2021/03/08 06:17:25;;;;;;;47.50;24.10;;;4.50;78.30;;;;;;5075427;28;20455;-73
2021/03/08 06:19:52;;;;;;;40.50;25.40;;;4.50;78.50;;;;;;5074656;28;20941;-73
2021/03/08 06:22:19;;;;;;;39.30;25.67;;;4.50;78.60;;;;;;5075372;28;20448;-73
2021/03/08 06:24:45;;;;;;;44.40;26.37;;;4.60;78.70;;;;;;5075287;28;20438;-73
2021/03/08 06:27:15;;;;;;;45.30;28.53;;;4.60;78.50;;;;;;5075083;28;20488;-73
2021/03/08 06:29:43;;;;;;;41.30;27.13;;;4.60;78.10;;;;;;5075178;28;20448;-73
2021/03/08 06:32:11;;;;;;;45.70;27.87;;;4.60;78.10;;;;;;5075060;28;20938;-72
2021/03/08 06:34:39;;;;;;;40.20;25.40;;;4.60;78.20;;;;;;5075098;28;20424;-72
2021/03/08 06:37:07;;;;;;;42.40;26.20;;;4.60;78.30;;;;;;5074964;28;20468;-72
2021/03/08 06:39:34;;;;;;;43.90;26.87;;;4.50;78.70;;;;;;5074825;28;20457;-72
2021/03/08 06:42:01;;;;;;;43.90;27.30;;;4.50;78.90;;;;;;5074886;28;20797;-71
2021/03/08 06:44:28;;;;;;;42.67;26.23;;;4.60;79.20;;;;;;5074889;28;20435;-71
2021/03/08 06:46:54;;;;;;;44.33;26.37;;;4.60;79.10;;;;;;5074672;28;20491;-71
2021/03/08 06:49:21;;;;;;;49.70;26.70;;;4.70;79.20;;;;;;5074793;28;20452;-71
2021/03/08 06:52:12;;;;;;;42.53;25.63;;;4.70;79.20;;;;;;5074449;28;20957;-71
2021/03/08 06:54:39;;;;;;;47.10;26.70;;;4.70;79.40;;;;;;5059677;28;20456;-71
2021/03/08 06:57:22;;;;;;;45.63;27.80;;;4.80;79.40;;;;;;5074559;28;20463;-71
2021/03/08 06:59:53;;;;;;;51.80;27.07;;;4.90;79.30;;;;;;5073257;28;20453;-71
2021/03/08 07:02:20;;;;;;;48.50;28.23;;;4.90;78.90;;;;;;5074557;28;20431;-71
2021/03/08 07:04:46;;;;;;;48.00;27.83;;;4.90;79.00;;;;;;5074101;28;20917;-71
2021/03/08 07:07:13;;;;;;;48.20;29.27;;;4.90;79.30;;;;;;5074326;28;20488;-71
2021/03/08 07:09:48;;;;;;;49.83;29.47;;;4.90;80.20;;;;;;5074415;28;20451;-71
2021/03/08 07:12:15;;;;;;;56.37;29.00;;;4.90;79.50;;;;;;5075015;28;20436;-72
2021/03/08 07:14:42;;;;;;;46.67;29.63;;;4.90;79.60;;;;;;5074560;28;20447;-71
2021/03/08 07:17:30;;;;;;;54.10;30.17;;;4.90;79.70;;;;;;5074242;28;20461;-71
2021/03/08 07:19:57;;;;;;;46.47;28.90;;;5.00;79.70;;;;;;5074198;28;20911;-72
2021/03/08 07:22:41;;;;;;;47.13;29.27;;;5.00;80.00;;;;;;5073837;28;20451;-71
2021/03/08 07:25:16;;;;;;;51.33;29.97;;;5.00;80.30;;;;;;5074555;28;20762;-71
2021/03/08 07:27:43;;;;;;;49.60;30.47;;;5.10;80.30;;;;;;5073684;28;20453;-71
2021/03/08 07:30:13;;;;;;;49.27;29.77;;;5.10;80.40;;;;;;5073584;28;20444;-71
2021/03/08 07:32:50;;;;;;;48.23;28.70;;;5.10;80.30;;;;;;5073693;28;20425;-71
2021/03/08 07:35:17;;;;;;;51.47;30.47;;;5.20;80.10;;;;;;5074034;28;20424;-71
2021/03/08 07:37:45;;;;;;;52.30;30.37;;;5.10;80.00;;;;;;5073927;28;20475;-71
2021/03/08 07:40:21;;;;;;;53.33;30.60;;;5.20;80.10;;;;;;5073936;28;20845;-72
2021/03/08 07:42:47;;;;;;;53.03;30.73;;;5.30;80.10;;;;;;5073584;28;20850;-72
2021/03/08 07:45:14;;;;;;;53.57;32.07;;;5.20;79.80;;;;;;5073771;28;20441;-71
2021/03/08 07:47:41;;;;;;;51.00;31.77;;;5.30;80.40;;;;;;5073988;28;20468;-71
2021/03/08 07:50:26;;;;;;;52.83;30.27;;;5.30;80.10;;;;;;5073723;28;20441;-71
2021/03/08 07:52:53;;;;;;;49.80;30.67;;;5.30;80.10;;;;;;5073723;28;20444;-72
2021/03/08 07:55:19;;;;;;;56.87;31.17;;;5.40;80.30;;;;;;5073618;28;20487;-71
2021/03/08 07:57:46;;;;;;;56.63;32.93;;;5.50;80.30;;;;;;5073745;28;20483;-71
2021/03/08 08:00:14;;;;;;;56.60;32.33;;;5.50;80.10;;;;;;5073612;28;20447;-71
2021/03/08 08:02:41;;;;;;;55.63;34.67;;;5.60;79.80;;;;;;5073569;28;20497;-72
2021/03/08 08:05:08;;;;;;;64.23;33.33;;;5.70;79.50;;;;;;5073969;28;20819;-72
2021/03/08 08:07:39;;;;;;;47.93;30.70;;;5.70;79.10;;;;;;5073511;28;20480;-71
2021/03/08 08:10:06;;;;;;;50.93;31.20;;;5.70;79.90;;;;;;5073569;28;20424;-71
2021/03/08 08:12:34;;;;;;;54.50;31.70;;;5.70;79.80;;;;;;5073796;28;20486;-71
2021/03/08 08:15:03;;;;;;;54.40;30.97;;;5.80;79.50;;;;;;5073434;28;20495;-71
2021/03/08 08:17:33;;;;;;;55.13;33.30;;;5.90;79.10;;;;;;5073004;28;20506;-72
2021/03/08 08:20:02;;;;;;;49.40;31.00;;;5.90;78.70;;;;;;5073471;28;20848;-71
2021/03/08 08:22:33;;;;;;;51.27;32.23;;;5.90;78.80;;;;;;5072997;28;20449;-72
2021/03/08 08:25:01;;;;;;;54.23;32.40;;;5.90;78.80;;;;;;5073472;28;20433;-72
2021/03/08 08:27:27;;;;;;;51.50;32.80;;;5.90;79.00;;;;;;5073290;28;20491;-71
2021/03/08 08:29:59;;;;;;;52.63;33.10;;;6.00;79.40;;;;;;5073349;28;20448;-72
2021/03/08 08:32:25;;;;;;;56.30;35.27;;;6.10;78.40;;;;;;5073129;28;20908;-71
2021/03/08 08:34:53;;;;;;;54.83;31.90;;;6.20;78.10;;;;;;5073338;28;20447;-72
2021/03/08 08:37:21;;;;;;;50.97;33.13;;;6.20;78.30;;;;;;5072866;28;20464;-72
2021/03/08 08:40:15;;;;;;;51.13;31.90;;;6.30;78.30;;;;;;5073207;28;20445;-72
2021/03/08 08:42:41;;;;;;;49.93;32.27;;;6.40;78.40;;;;;;5075194;28;20479;-72
2021/03/08 08:45:32;;;;;;;52.57;33.93;;;6.50;77.40;;;;;;5077177;28;20496;-72
2021/03/08 08:48:05;;;;;;;54.00;33.97;;;6.60;75.50;;;;;;5077130;28;20456;-72
2021/03/08 08:50:44;;;;;;;51.13;32.40;;;6.70;75.30;;;;;;5077195;28;20451;-72
2021/03/08 08:53:11;;;;;;;53.73;33.80;;;6.80;74.80;;;;;;5076881;28;20799;-72
2021/03/08 08:55:49;;;;;;;54.40;34.23;;;6.90;73.90;;;;;;5076995;28;20445;-72
2021/03/08 08:58:24;;;;;;;51.17;32.90;;;7.00;74.10;;;;;;5077093;28;21047;-72
2021/03/08 09:01:37;;;;;;;56.60;31.00;;;7.00;74.10;;;;;;5076910;28;20444;-72
2021/03/08 09:04:05;;;;;;;51.07;33.17;;;7.20;73.80;;;;;;5076927;28;20784;-72
2021/03/08 09:06:56;;;;;;;51.20;34.23;;;7.20;72.80;;;;;;5076391;28;21056;-72
2021/03/08 09:09:46;;;;;;;61.73;33.40;;;7.30;72.50;;;;;;5076844;28;20428;-72
2021/03/08 09:12:26;;;;;;;50.73;33.03;;;7.30;72.20;;;;;;5076274;28;20946;-72
2021/03/08 09:14:54;;;;;;;51.30;33.10;;;7.10;73.20;;;;;;5076858;28;20478;-72
2021/03/08 09:17:22;;;;;;;50.37;32.73;;;7.10;73.30;;;;;;5076853;28;20452;-72
2021/03/08 09:19:50;;;;;;;54.10;32.23;;;7.10;73.50;;;;;;5076253;28;20949;-72
2021/03/08 09:22:37;;;;;;;56.83;37.37;;;7.20;74.30;;;;;;5076500;28;20899;-72
2021/03/08 09:25:16;;;;;;;51.57;30.80;;;7.30;74.50;;;;;;5076471;28;20424;-72
2021/03/08 09:27:43;;;;;;;50.00;32.90;;;7.30;73.20;;;;;;5076271;28;20854;-72
2021/03/08 09:30:12;;;;;;;52.87;32.83;;;7.40;72.60;;;;;;5076485;28;20448;-72
2021/03/08 09:32:47;;;;;;;54.83;36.67;;;7.50;72.80;;;;;;5076292;28;20803;-72
2021/03/08 09:35:14;;;;;;;56.30;38.63;;;7.70;72.00;;;;;;5077238;28;20428;-72
2021/03/08 09:37:43;;;;;;;63.87;47.33;;;7.80;71.70;;;;;;5076227;28;20493;-72
2021/03/08 09:40:10;;;;;;;58.33;46.10;;;7.90;70.60;;;;;;5075891;28;20957;-72
2021/03/08 09:42:39;;;;;;;49.50;34.20;;;8.10;70.40;;;;;;5076218;28;20502;-72
2021/03/08 09:45:18;;;;;;;56.77;41.03;;;8.20;70.30;;;;;;5076286;28;20447;-72
2021/03/08 09:47:45;;;;;;;52.70;36.80;;;8.30;69.10;;;;;;5076014;28;20985;-72
2021/03/08 09:50:16;;;;;;;50.30;32.80;;;8.30;68.60;;;;;;5075763;28;20434;-72
2021/03/08 09:52:45;;;;;;;46.83;32.47;;;8.30;68.30;;;;;;5075991;28;20428;-72
2021/03/08 09:55:16;;;;;;;48.57;32.80;;;8.30;68.50;;;;;;5075139;28;20794;-72
2021/03/08 09:57:44;;;;;;;52.43;34.10;;;8.30;68.60;;;;;;5075867;28;20461;-72
2021/03/08 10:00:13;;;;;;;52.77;33.57;;;8.30;68.60;;;;;;5075944;28;20449;-72
2021/03/08 10:02:40;;;;;;;47.80;32.70;;;8.30;68.80;;;;;;5076134;28;20446;-72
2021/03/08 10:05:08;;;;;;;46.20;32.37;;;8.30;68.40;;;;;;5075714;28;20457;-72
2021/03/08 10:07:34;;;;;;;54.63;33.57;;;8.20;68.00;;;;;;5075538;28;20489;-72
2021/03/08 10:10:11;;;;;;;58.43;34.87;;;8.20;68.60;;;;;;5075876;28;20425;-72
2021/03/08 10:12:37;;;;;;;49.43;30.87;;;8.20;69.00;;;;;;5075229;28;20429;-72
2021/03/08 10:15:06;;;;;;;54.20;32.93;;;8.20;68.90;;;;;;5075621;28;20824;-72
2021/03/08 10:17:33;;;;;;;48.70;30.57;;;8.20;69.00;;;;;;5075098;28;20461;-72
2021/03/08 10:20:01;;;;;;;50.83;31.97;;;8.20;68.50;;;;;;5075494;28;20432;-72
2021/03/08 10:22:40;;;;;;;48.93;30.27;;;8.10;68.90;;;;;;5075369;28;20451;-72
2021/03/08 10:25:19;;;;;;;50.47;32.63;;;8.10;69.10;;;;;;5075403;28;20424;-72
2021/03/08 10:27:46;;;;;;;52.93;33.20;;;8.20;69.70;;;;;;5075135;28;20480;-72
2021/03/08 10:30:15;;;;;;;53.27;33.13;;;8.20;69.70;;;;;;5075207;28;20440;-72
2021/03/08 10:32:42;;;;;;;57.43;34.90;;;8.20;69.90;;;;;;5075157;28;20493;-72
2021/03/08 10:35:10;;;;;;;49.53;33.60;;;8.30;69.80;;;;;;5075198;28;20425;-72
2021/03/08 10:37:39;;;;;;;48.93;31.23;;;8.30;69.80;;;;;;5074921;28;20460;-72
2021/03/08 10:40:07;;;;;;;52.70;34.83;;;8.40;69.80;;;;;;5075313;28;20425;-72
2021/03/08 10:42:33;;;;;;;53.17;31.60;;;8.40;69.40;;;;;;5075207;28;20448;-72
2021/03/08 10:45:00;;;;;;;51.20;31.20;;;8.50;69.10;;;;;;5075009;28;20449;-72
2021/03/08 10:47:27;;;;;;;47.60;30.47;;;8.60;69.20;;;;;;5074912;28;20487;-72
2021/03/08 10:49:54;;;;;;;50.30;32.00;;;8.70;69.30;;;;;;5074828;28;20447;-72
2021/03/08 10:52:21;;;;;;;50.80;32.80;;;8.80;69.30;;;;;;5074827;28;20517;-72
2021/03/08 10:54:47;;;;;;;49.97;30.87;;;8.90;69.10;;;;;;5074566;28;20907;-72
2021/03/08 10:57:14;;;;;;;57.23;34.50;;;9.10;68.30;;;;;;5074676;28;20513;-72
2021/03/08 10:59:47;;;;;;;52.37;34.17;;;9.20;68.50;;;;;;5074463;28;20935;-72
2021/03/08 11:02:15;;;;;;;51.30;33.93;;;9.40;67.20;;;;;;5074685;28;20429;-72
2021/03/08 11:04:43;;;;;;;48.70;33.17;;;9.50;66.70;;;;;;5074370;28;20524;-73
2021/03/08 11:07:10;;;;;;;56.10;34.40;;;9.70;66.30;;;;;;5074399;28;20485;-72
2021/03/08 11:09:37;;;;;;;47.70;31.60;;;9.80;66.00;;;;;;5074466;28;20424;-72
2021/03/08 11:12:05;;;;;;;52.87;34.90;;;9.90;65.60;;;;;;5074775;28;20425;-72
2021/03/08 11:14:49;;;;;;;45.37;31.67;;;10.20;63.60;;;;;;5074164;28;20996;-72
2021/03/08 11:17:16;;;;;;;44.43;30.90;;;10.30;61.60;;;;;;5074202;28;20826;-72
2021/03/08 11:19:44;;;;;;;50.53;34.20;;;10.40;60.50;;;;;;5074365;28;20882;-72
2021/03/08 11:22:12;;;;;;;51.70;35.13;;;10.60;60.90;;;;;;5074570;28;20444;-72
2021/03/08 11:24:44;;;;;;;55.57;32.40;;;10.60;60.00;;;;;;5073955;28;20922;-72
2021/03/08 11:27:16;;;;;;;47.87;32.00;;;10.70;60.70;;;;;;5073971;28;20484;-71
2021/03/08 11:29:57;;;;;;;48.83;32.03;;;10.70;60.20;;;;;;5074113;28;20796;-71
2021/03/08 11:32:24;;;;;;;47.27;33.23;;;10.70;59.70;;;;;;5073983;28;20444;-74
2021/03/08 11:34:53;;;;;;;52.17;35.20;;;10.60;59.70;;;;;;5073959;28;20432;-74
2021/03/08 11:37:21;;;;;;;58.03;36.30;;;10.50;60.20;;;;;;5073811;28;20456;-72
2021/03/08 11:39:49;;;;;;;43.70;30.63;;;10.60;60.40;;;;;;5073872;28;20445;-72
2021/03/08 11:42:18;;;;;;;46.80;31.20;;;10.80;60.50;;;;;;5073577;28;21004;-74
2021/03/08 11:44:45;;;;;;;48.27;31.70;;;10.80;60.00;;;;;;5073836;28;20433;-73
2021/03/08 11:47:12;;;;;;;44.60;29.00;;;10.70;60.10;;;;;;5073589;28;20495;-73
2021/03/08 11:49:39;;;;;;;50.33;33.97;;;10.40;61.40;;;;;;5073723;28;20444;-73
2021/03/08 11:52:07;;;;;;;49.77;33.60;;;10.30;62.90;;;;;;5073441;28;20501;-73
2021/03/08 11:54:34;;;;;;;48.77;34.07;;;10.20;63.10;;;;;;5073446;28;20421;-73
2021/03/08 11:57:01;;;;;;;46.00;30.00;;;10.20;63.50;;;;;;5073601;28;20461;-73
2021/03/08 11:59:27;;;;;;;45.63;29.57;;;10.20;63.00;;;;;;5073567;28;20445;-73
2021/03/08 12:01:53;;;;;;;40.70;28.30;;;10.20;63.50;;;;;;5073318;28;20773;-74
2021/03/08 12:04:20;;;;;;;38.67;29.50;;;10.30;64.40;;;;;;5073533;28;20445;-72
2021/03/08 12:06:46;;;;;;;40.10;28.43;;;10.30;64.40;;;;;;5073006;28;20488;-73
2021/03/08 12:09:13;;;;;;;43.60;28.20;;;10.30;64.00;;;;;;5073534;28;20448;-74
2021/03/08 12:11:40;;;;;;;47.10;31.60;;;10.40;63.50;;;;;;5073462;28;20492;-74
2021/03/08 12:14:06;;;;;;;40.70;28.03;;;10.50;63.20;;;;;;5073150;28;20451;-75
2021/03/08 12:16:32;;;;;;;38.93;29.17;;;10.70;62.60;;;;;;5073075;28;20441;-75
2021/03/08 12:18:59;;;;;;;40.40;28.73;;;10.80;62.40;;;;;;5073096;28;20483;-74
2021/03/08 12:21:25;;;;;;;37.80;28.47;;;11.00;62.20;;;;;;5073403;28;20444;-75
2021/03/08 12:23:52;;;;;;;42.77;28.13;;;11.30;60.70;;;;;;5073363;28;20440;-75
2021/03/08 12:26:19;;;;;;;37.47;25.70;;;11.50;60.00;;;;;;5074296;28;20478;-75
2021/03/08 12:28:46;;;;;;;38.03;26.73;;;11.70;59.10;;;;;;5073333;28;20449;-75
2021/03/08 12:31:12;;;;;;;38.43;27.73;;;12.00;58.60;;;;;;5073307;28;20448;-75
2021/03/08 12:33:39;;;;;;;39.33;29.57;;;12.10;58.20;;;;;;5073249;28;20441;-75
2021/03/08 12:36:06;;;;;;;41.87;29.43;;;12.40;57.70;;;;;;5073310;28;20421;-73
2021/03/08 12:38:33;;;;;;;39.03;28.43;;;12.60;57.20;;;;;;5073185;28;20468;-75
2021/03/08 12:41:00;;;;;;;42.90;29.47;;;12.60;55.80;;;;;;5072927;28;20938;-73
2021/03/08 12:43:27;;;;;;;42.90;30.57;;;12.70;56.00;;;;;;5073320;28;20456;-73
2021/03/08 12:45:53;;;;;;;43.27;34.60;;;12.80;55.90;;;;;;5073152;28;20429;-75
2021/03/08 12:48:20;;;;;;;38.60;28.00;;;12.90;55.70;;;;;;5073090;28;20464;-75
2021/03/08 12:50:46;;;;;;;42.20;30.13;;;13.00;55.10;;;;;;5073164;28;20444;-75